Time;durP1;ratioP1;P1;durP2;ratioP2;P2;SDS_P1;SDS_P2;PMS_P1;PMS_P2;Temp;Humidity;BMP_temperature;BMP_pressure;BME280_temperature;BME280_humidity;BME280_pressure;Samples;Min_cycle;Max_cycle;Signal;HPM_P1;HPM_P2
2020/12/03 00:00:39;;;;;;;;;;;22.60;37.80;;;;;;1566396;74;788;-69
2020/12/03 00:02:41;;;;;;;;;;;22.70;37.80;;;;;;1572725;74;714;-68
2020/12/03 00:04:44;;;;;;;;;;;22.80;37.70;;;;;;1571877;74;723;-68
2020/12/03 00:06:47;;;;;;;;;;;22.70;37.80;;;;;;1572289;74;1085;-66
2020/12/03 00:08:51;;;;;;;;;;;22.80;37.80;;;;;;1568746;74;1093;-68
2020/12/03 00:10:52;;;;;;;;;;;22.70;37.90;;;;;;1560393;74;1942;-68
2020/12/03 00:13:02;;;;;;;;;;;22.70;37.90;;;;;;1572701;74;693;-68
2020/12/03 00:15:04;;;;;;;;;;;22.80;37.80;;;;;;1567568;75;1713;-68
2020/12/03 00:17:06;;;;;;;;;;;22.80;37.80;;;;;;1572659;74;795;-68
2020/12/03 00:19:08;;;;;;;;;;;22.80;37.80;;;;;;1568074;74;1186;-69
2020/12/03 00:21:11;;;;;;;;;;;22.70;37.80;;;;;;1569375;74;734;-69
2020/12/03 00:23:13;;;;;;;;;;;22.80;37.80;;;;;;1572758;74;794;-68
2020/12/03 00:25:14;;;;;;;;;;;22.80;37.80;;;;;;1572763;74;780;-70
2020/12/03 00:27:16;;;;;;;;;;;22.80;37.80;;;;;;1570678;75;771;-71
2020/12/03 00:29:19;;;;;;;;;;;22.70;37.90;;;;;;1569673;74;1105;-69
2020/12/03 00:31:21;;;;;;;;;;;22.80;37.90;;;;;;1572659;75;1932;-70
2020/12/03 00:33:22;;;;;;;;;;;22.80;37.90;;;;;;1572475;75;750;-70
2020/12/03 00:35:24;;;;;;;;;;;22.80;38.00;;;;;;1572721;75;794;-69
2020/12/03 00:37:26;;;;;;;;;;;22.80;37.80;;;;;;1563014;74;707;-70
2020/12/03 00:39:28;;;;;;;;;;;22.90;38.00;;;;;;1569457;75;1129;-70
2020/12/03 00:41:30;;;;;;;;;;;22.80;37.90;;;;;;1567580;74;714;-70
2020/12/03 00:43:32;;;;;;;;;;;22.80;37.90;;;;;;1576676;74;770;-70
2020/12/03 00:45:34;;;;;;;;;;;22.80;37.90;;;;;;1571034;74;707;-69
2020/12/03 00:47:36;;;;;;;;;;;22.80;38.10;;;;;;1572672;74;782;-70
2020/12/03 00:49:38;;;;;;;;;;;22.80;38.10;;;;;;1572054;74;1131;-69
2020/12/03 00:51:42;;;;;;;;;;;22.70;38.00;;;;;;1572739;74;1942;-68
2020/12/03 00:53:43;;;;;;;;;;;22.80;38.00;;;;;;1570951;75;1622;-69
2020/12/03 00:55:45;;;;;;;;;;;22.80;38.10;;;;;;1569247;75;828;-68
2020/12/03 00:57:47;;;;;;;;;;;22.80;38.10;;;;;;1565797;74;711;-68
2020/12/03 00:59:49;;;;;;;;;;;22.80;38.20;;;;;;1572647;74;1105;-69
2020/12/03 01:01:51;;;;;;;;;;;22.80;38.10;;;;;;1568935;74;769;-69
2020/12/03 01:03:53;;;;;;;;;;;22.80;38.20;;;;;;1571726;75;751;-69
2020/12/03 01:05:55;;;;;;;;;;;22.80;38.10;;;;;;1571449;75;786;-68
2020/12/03 01:07:57;;;;;;;;;;;22.80;38.20;;;;;;1572675;74;710;-68
2020/12/03 01:09:58;;;;;;;;;;;22.80;38.10;;;;;;1568639;74;1117;-68
2020/12/03 01:12:00;;;;;;;;;;;22.80;38.10;;;;;;1572558;74;1934;-67
2020/12/03 01:14:02;;;;;;;;;;;22.80;38.20;;;;;;1569609;75;735;-67
2020/12/03 01:16:04;;;;;;;;;;;22.80;38.20;;;;;;1572136;74;714;-67
2020/12/03 01:18:06;;;;;;;;;;;22.80;38.20;;;;;;1572728;74;737;-67
2020/12/03 01:20:10;;;;;;;;;;;22.80;38.20;;;;;;1569041;74;1091;-67
2020/12/03 01:22:11;;;;;;;;;;;22.80;38.30;;;;;;1572761;74;788;-67
2020/12/03 01:24:13;;;;;;;;;;;22.80;38.30;;;;;;1569784;74;780;-68
2020/12/03 01:26:16;;;;;;;;;;;22.80;38.20;;;;;;1567171;75;806;-67
2020/12/03 01:28:18;;;;;;;;;;;22.80;38.20;;;;;;1569912;74;719;-68
2020/12/03 01:30:20;;;;;;;;;;;22.80;38.20;;;;;;1573021;74;1094;-68
2020/12/03 01:32:22;;;;;;;;;;;22.80;38.20;;;;;;1571692;74;1935;-68
2020/12/03 01:34:23;;;;;;;;;;;22.80;38.20;;;;;;1552701;74;815;-68
2020/12/03 01:36:25;;;;;;;;;;;22.80;38.20;;;;;;1547256;74;817;-68
2020/12/03 01:38:27;;;;;;;;;;;22.80;38.20;;;;;;1570055;74;1199;-69
2020/12/03 01:40:29;;;;;;;;;;;22.80;38.20;;;;;;1570169;74;610;-69
2020/12/03 01:42:31;;;;;;;;;;;22.80;38.30;;;;;;1570424;74;722;-69
2020/12/03 01:44:37;;;;;;;;;;;22.80;38.20;;;;;;1569958;74;711;-69
2020/12/03 01:46:39;;;;;;;;;;;22.80;38.20;;;;;;1569227;74;1015;-70
2020/12/03 01:48:43;;;;;;;;;;;22.80;38.20;;;;;;1570099;74;1103;-68
2020/12/03 01:50:45;;;;;;;;;;;22.80;38.10;;;;;;1565156;74;778;-71
2020/12/03 01:52:46;;;;;;;;;;;22.80;38.30;;;;;;1560549;74;1929;-70
2020/12/03 01:54:48;;;;;;;;;;;22.80;38.30;;;;;;1535713;76;1181;-70
2020/12/03 01:57:07;;;;;;;;;;;22.90;38.30;;;;;;1569078;74;796;-69
2020/12/03 01:59:09;;;;;;;;;;;22.80;38.10;;;;;;1558240;74;1158;-71
2020/12/03 02:01:11;;;;;;;;;;;22.80;38.10;;;;;;1566799;74;662;-71
2020/12/03 02:03:13;;;;;;;;;;;22.80;38.10;;;;;;1564493;74;788;-70
2020/12/03 02:05:22;;;;;;;;;;;22.80;38.20;;;;;;1570187;74;814;-70
2020/12/03 02:07:24;;;;;;;;;;;22.80;38.20;;;;;;1569984;75;1002;-69
2020/12/03 02:09:26;;;;;;;;;;;22.80;38.20;;;;;;1572823;74;1366;-69
2020/12/03 02:11:28;;;;;;;;;;;22.80;38.20;;;;;;1572605;74;1940;-69
2020/12/03 02:13:30;;;;;;;;;;;22.80;38.30;;;;;;1563662;74;699;-70
2020/12/03 02:15:32;;;;;;;;;;;22.80;38.30;;;;;;1562229;74;749;-70
2020/12/03 02:17:34;;;;;;;;;;;22.80;38.20;;;;;;1572688;74;775;-70
2020/12/03 02:19:36;;;;;;;;;;;22.80;38.30;;;;;;1572752;74;1124;-69
2020/12/03 02:21:38;;;;;;;;;;;22.80;38.30;;;;;;1569416;74;677;-70
2020/12/03 02:23:39;;;;;;;;;;;23.00;38.40;;;;;;1587156;74;688;-69
2020/12/03 02:25:41;;;;;;;;;;;22.80;38.30;;;;;;1582336;74;558;-70
2020/12/03 02:27:43;;;;;;;;;;;22.80;38.30;;;;;;1573775;74;806;-70
2020/12/03 02:29:45;;;;;;;;;;;22.80;38.40;;;;;;1582435;74;1077;-70
2020/12/03 02:31:47;;;;;;;;;;;22.80;38.30;;;;;;1581744;74;1929;-70
2020/12/03 02:33:49;;;;;;;;;;;22.80;38.40;;;;;;1591728;74;729;-70
2020/12/03 02:35:51;;;;;;;;;;;22.80;38.40;;;;;;1557176;74;757;-71
2020/12/03 02:37:53;;;;;;;;;;;22.80;38.40;;;;;;1566582;74;760;-69
2020/12/03 02:39:55;;;;;;;;;;;22.80;38.40;;;;;;1570503;74;1228;-70
2020/12/03 02:41:57;;;;;;;;;;;22.80;38.40;;;;;;1555101;74;704;-70
2020/12/03 02:43:59;;;;;;;;;;;22.80;38.40;;;;;;1588096;74;809;-69
2020/12/03 02:46:01;;;;;;;;;;;22.80;38.40;;;;;;1572858;74;743;-69
2020/12/03 02:48:03;;;;;;;;;;;22.80;38.40;;;;;;1572678;74;813;-69
2020/12/03 02:50:05;;;;;;;;;;;22.80;38.40;;;;;;1598497;74;1103;-70
2020/12/03 02:52:08;;;;;;;;;;;22.80;38.40;;;;;;1566906;74;1914;-70
2020/12/03 02:54:10;;;;;;;;;;;22.80;38.60;;;;;;1557094;74;780;-70
2020/12/03 02:56:13;;;;;;;;;;;22.80;38.60;;;;;;1572270;74;783;-70
2020/12/03 02:58:14;;;;;;;;;;;22.80;38.60;;;;;;1575320;74;678;-70
2020/12/03 03:00:16;;;;;;;;;;;22.80;38.50;;;;;;1570841;74;1072;-70
2020/12/03 03:02:18;;;;;;;;;;;22.80;38.60;;;;;;1548621;74;694;-69
2020/12/03 03:04:20;;;;;;;;;;;22.80;38.50;;;;;;1557957;74;677;-70
2020/12/03 03:06:22;;;;;;;;;;;22.80;38.60;;;;;;1557296;75;720;-71
2020/12/03 03:08:24;;;;;;;;;;;22.80;38.60;;;;;;1562619;74;1133;-71
2020/12/03 03:10:26;;;;;;;;;;;22.80;38.60;;;;;;1565058;74;722;-72
2020/12/03 03:12:28;;;;;;;;;;;22.80;38.60;;;;;;1562719;74;1936;-70
2020/12/03 03:14:29;;;;;;;;;;;22.80;38.60;;;;;;1577735;74;730;-71
2020/12/03 03:16:31;;;;;;;;;;;22.80;38.50;;;;;;1590612;74;817;-70
2020/12/03 03:18:33;;;;;;;;;;;22.80;38.60;;;;;;1576996;74;1236;-70
2020/12/03 03:20:35;;;;;;;;;;;22.80;38.60;;;;;;1563669;74;771;-68
2020/12/03 03:22:39;;;;;;;;;;;22.80;38.60;;;;;;1553341;74;720;-70
2020/12/03 03:24:41;;;;;;;;;;;22.80;38.60;;;;;;1566626;74;751;-70
2020/12/03 03:26:43;;;;;;;;;;;22.80;38.60;;;;;;1564625;74;711;-72
2020/12/03 03:28:45;;;;;;;;;;;22.80;38.50;;;;;;1559732;74;1112;-71
2020/12/03 03:30:46;;;;;;;;;;;22.80;38.60;;;;;;1571950;74;730;-71
2020/12/03 03:32:48;;;;;;;;;;;22.80;38.70;;;;;;1572894;74;1931;-71
2020/12/03 03:34:50;;;;;;;;;;;22.80;38.60;;;;;;1572642;74;681;-70
2020/12/03 03:36:52;;;;;;;;;;;22.80;38.80;;;;;;1565640;74;746;-70
2020/12/03 03:38:54;;;;;;;;;;;22.80;38.70;;;;;;1565441;74;1190;-70
2020/12/03 03:40:56;;;;;;;;;;;22.80;38.80;;;;;;1546499;74;1098;-69
2020/12/03 03:42:58;;;;;;;;;;;22.80;38.70;;;;;;1577604;74;697;-69
2020/12/03 03:45:00;;;;;;;;;;;22.90;38.80;;;;;;1575560;74;730;-70
2020/12/03 03:47:02;;;;;;;;;;;22.80;38.60;;;;;;1564364;74;710;-69
2020/12/03 03:49:03;;;;;;;;;;;22.90;38.80;;;;;;1574904;74;1133;-70
2020/12/03 03:51:05;;;;;;;;;;;22.90;38.80;;;;;;1572940;75;727;-70
2020/12/03 03:53:07;;;;;;;;;;;22.80;38.60;;;;;;1571486;74;1950;-70
2020/12/03 03:55:09;;;;;;;;;;;22.90;38.80;;;;;;1572515;74;678;-70
2020/12/03 03:57:11;;;;;;;;;;;22.80;38.60;;;;;;1551057;74;779;-69
2020/12/03 03:59:13;;;;;;;;;;;22.90;38.70;;;;;;1546364;74;1117;-70
2020/12/03 04:01:15;;;;;;;;;;;22.80;38.70;;;;;;1551607;74;784;-70
2020/12/03 04:03:17;;;;;;;;;;;22.80;38.70;;;;;;1558964;74;763;-71
2020/12/03 04:05:19;;;;;;;;;;;22.80;38.60;;;;;;1572891;74;716;-71
2020/12/03 04:07:21;;;;;;;;;;;22.80;38.90;;;;;;1572725;74;715;-68
2020/12/03 04:09:23;;;;;;;;;;;22.90;38.90;;;;;;1568552;74;1121;-72
2020/12/03 04:11:25;;;;;;;;;;;22.80;38.70;;;;;;1555238;74;738;-71
2020/12/03 04:13:27;;;;;;;;;;;22.90;38.80;;;;;;1572580;74;1939;-71
2020/12/03 04:15:29;;;;;;;;;;;22.80;38.70;;;;;;1572943;74;786;-71
2020/12/03 04:17:30;;;;;;;;;;;22.80;38.70;;;;;;1572801;75;763;-69
2020/12/03 04:19:32;;;;;;;;;;;22.90;38.90;;;;;;1569719;74;1176;-69
2020/12/03 04:21:36;;;;;;;;;;;22.80;38.80;;;;;;1570382;74;705;-69
2020/12/03 04:23:38;;;;;;;;;;;22.80;38.90;;;;;;1572513;74;718;-68
2020/12/03 04:25:40;;;;;;;;;;;22.80;38.90;;;;;;1572800;74;705;-69
2020/12/03 04:27:42;;;;;;;;;;;22.90;38.90;;;;;;1571761;74;770;-69
2020/12/03 04:29:44;;;;;;;;;;;22.80;38.90;;;;;;1572166;74;1152;-70
2020/12/03 04:31:45;;;;;;;;;;;22.90;39.00;;;;;;1568708;74;733;-69
2020/12/03 04:33:47;;;;;;;;;;;22.80;38.90;;;;;;1560528;74;1938;-69
2020/12/03 04:35:49;;;;;;;;;;;22.90;38.90;;;;;;1562016;74;748;-69
2020/12/03 04:37:51;;;;;;;;;;;22.80;38.80;;;;;;1571751;74;767;-68
2020/12/03 04:39:53;;;;;;;;;;;22.90;38.90;;;;;;1556454;74;1161;-69
2020/12/03 04:41:55;;;;;;;;;;;22.80;38.80;;;;;;1571338;74;687;-69
2020/12/03 04:44:04;;;;;;;;;;;22.80;38.80;;;;;;1562979;74;832;-69
2020/12/03 04:46:08;;;;;;;;;;;22.80;38.80;;;;;;1572461;74;825;-71
2020/12/03 04:48:20;;;;;;;;;;;22.80;38.70;;;;;;1572290;74;1860;-70
2020/12/03 04:50:27;;;;;;;;;;;22.80;38.70;;;;;;1567605;74;766;-71
2020/12/03 04:52:39;;;;;;;;;;;22.90;38.80;;;;;;1556109;74;1937;-70
2020/12/03 04:54:42;;;;;;;;;;;22.90;38.90;;;;;;1568838;74;1594;-70
2020/12/03 04:57:03;;;;;;;;;;;22.80;38.70;;;;;;1568149;74;821;-71
2020/12/03 04:59:07;;;;;;;;;;;22.90;38.90;;;;;;1559361;74;1147;-70
2020/12/03 05:01:10;;;;;;;;;;;22.80;38.80;;;;;;1564433;74;1445;-70
2020/12/03 05:03:30;;;;;;;;;;;22.80;38.80;;;;;;1570361;74;599;-70
2020/12/03 05:05:40;;;;;;;;;;;22.80;38.70;;;;;;1570494;74;748;-70
2020/12/03 05:07:47;;;;;;;;;;;22.80;38.70;;;;;;1568071;74;1075;-70
2020/12/03 05:09:53;;;;;;;;;;;22.80;38.70;;;;;;1569701;74;1118;-70
2020/12/03 05:11:56;;;;;;;;;;;22.80;38.80;;;;;;1572787;74;708;-70
2020/12/03 05:13:59;;;;;;;;;;;22.90;39.00;;;;;;1559036;74;1932;-70
2020/12/03 05:16:03;;;;;;;;;;;22.90;38.90;;;;;;1564671;74;728;-69
2020/12/03 05:18:18;;;;;;;;;;;22.80;38.80;;;;;;1554546;74;1612;-70
2020/12/03 05:20:31;;;;;;;;;;;22.80;38.70;;;;;;1551522;75;1864;-70
2020/12/03 05:22:33;;;;;;;;;;;22.80;38.80;;;;;;1559168;74;743;-70
2020/12/03 05:24:35;;;;;;;;;;;22.80;38.80;;;;;;1566885;75;786;-70
2020/12/03 05:26:37;;;;;;;;;;;22.80;38.90;;;;;;1567616;74;762;-70
2020/12/03 05:28:40;;;;;;;;;;;22.80;38.90;;;;;;1565257;74;1162;-70
2020/12/03 05:30:42;;;;;;;;;;;22.80;38.90;;;;;;1571335;74;1095;-68
2020/12/03 05:32:46;;;;;;;;;;;22.80;38.80;;;;;;1568543;74;1936;-70
2020/12/03 05:34:48;;;;;;;;;;;22.90;38.90;;;;;;1572767;74;680;-70
2020/12/03 05:36:57;;;;;;;;;;;22.90;38.90;;;;;;1568658;74;672;-70
2020/12/03 05:39:01;;;;;;;;;;;22.80;38.80;;;;;;1569388;74;1164;-69
2020/12/03 05:41:04;;;;;;;;;;;22.90;39.00;;;;;;1569077;74;1571;-68
2020/12/03 05:43:08;;;;;;;;;;;22.80;38.80;;;;;;1571425;74;1460;-69
2020/12/03 05:45:11;;;;;;;;;;;22.90;38.80;;;;;;1572430;74;775;-69
2020/12/03 05:47:20;;;;;;;;;;;22.90;38.80;;;;;;1563163;74;1061;-69
2020/12/03 05:49:22;;;;;;;;;;;22.90;38.80;;;;;;1572327;75;1616;-69
2020/12/03 05:51:25;;;;;;;;;;;22.80;38.60;;;;;;1572746;74;775;-69
2020/12/03 05:53:27;;;;;;;;;;;22.80;38.60;;;;;;1569384;74;1948;-68
2020/12/03 05:55:29;;;;;;;;;;;22.80;38.60;;;;;;1566917;74;728;-69
2020/12/03 05:57:32;;;;;;;;;;;22.80;38.60;;;;;;1572043;74;707;-68
2020/12/03 05:59:34;;;;;;;;;;;22.80;38.60;;;;;;1572359;74;1198;-68
2020/12/03 06:01:35;;;;;;;;;;;22.80;38.60;;;;;;1572847;74;730;-70
2020/12/03 06:03:42;;;;;;;;;;;22.80;38.60;;;;;;1572869;74;781;-68
2020/12/03 06:05:49;;;;;;;;;;;22.80;38.40;;;;;;1568970;74;753;-68
2020/12/03 06:07:52;;;;;;;;;;;22.90;38.60;;;;;;1547091;75;1108;-67
2020/12/03 06:10:02;;;;;;;;;;;22.90;38.50;;;;;;1571660;74;1079;-67
2020/12/03 06:12:14;;;;;;;;;;;22.90;38.50;;;;;;1568295;74;804;-66
2020/12/03 06:14:36;;;;;;;;;;;22.90;38.50;;;;;;1571528;74;1921;-67
2020/12/03 06:16:42;;;;;;;;;;;22.80;38.40;;;;;;1568406;75;989;-67
2020/12/03 06:19:00;;;;;;;;;;;22.80;38.50;;;;;;1565815;75;1266;-66
2020/12/03 06:21:07;;;;;;;;;;;22.80;38.50;;;;;;1570790;75;1035;-67
2020/12/03 06:23:28;;;;;;;;;;;22.90;38.60;;;;;;1566195;74;804;-66
2020/12/03 06:25:36;;;;;;;;;;;22.80;38.50;;;;;;1523736;77;1061;-68
2020/12/03 06:27:41;;;;;;;;;;;22.80;38.60;;;;;;1520108;77;971;-69
2020/12/03 06:29:54;;;;;;;;;;;22.80;38.60;;;;;;1516297;77;1152;-68
2020/12/03 06:32:03;;;;;;;;;;;22.80;38.60;;;;;;1569787;74;1689;-68
2020/12/03 06:34:24;;;;;;;;;;;22.80;38.60;;;;;;1572062;74;1911;-68
2020/12/03 06:36:39;;;;;;;;;;;22.90;38.80;;;;;;1569642;74;790;-69
2020/12/03 06:38:42;;;;;;;;;;;22.80;38.60;;;;;;1572524;74;1625;-68
2020/12/03 06:40:45;;;;;;;;;;;22.80;38.60;;;;;;1572342;75;1926;-67
2020/12/03 06:42:58;;;;;;;;;;;22.80;38.60;;;;;;1584855;74;785;-68
2020/12/03 06:45:02;;;;;;;;;;;22.70;38.80;;;;;;1517368;77;1249;-69
2020/12/03 06:47:20;;;;;;;;;;;22.70;38.90;;;;;;1537907;74;1365;-68
2020/12/03 06:49:30;;;;;;;;;;;22.70;39.00;;;;;;1561022;74;1089;-64
2020/12/03 06:51:50;;;;;;;;;;;22.60;38.90;;;;;;1551533;74;1787;-69
2020/12/03 06:54:10;;;;;;;;;;;22.60;39.00;;;;;;1554101;74;1926;-70
2020/12/03 06:56:19;;;;;;;;;;;22.60;39.20;;;;;;1568623;74;697;-69
2020/12/03 06:58:25;;;;;;;;;;;22.60;39.20;;;;;;1552261;74;737;-70
2020/12/03 07:00:35;;;;;;;;;;;22.70;39.00;;;;;;1557288;74;1129;-70
2020/12/03 07:02:41;;;;;;;;;;;22.70;38.80;;;;;;1554534;74;730;-67
2020/12/03 07:04:44;;;;;;;;;;;22.60;38.60;;;;;;1568404;74;708;-70
2020/12/03 07:06:51;;;;;;;;;;;22.60;38.50;;;;;;1565770;74;718;-69
2020/12/03 07:08:57;;;;;;;;;;;22.60;38.70;;;;;;1556964;74;1228;-71
2020/12/03 07:11:03;;;;;;;;;;;22.50;38.50;;;;;;1554746;74;779;-68
2020/12/03 07:13:13;;;;;;;;;;;22.70;38.70;;;;;;1566484;75;1904;-68
2020/12/03 07:15:34;;;;;;;;;;;22.60;38.60;;;;;;1572831;75;738;-64
2020/12/03 07:17:54;;;;;;;;;;;22.60;38.50;;;;;;1559291;74;1206;-72
2020/12/03 07:20:10;;;;;;;;;;;22.60;38.40;;;;;;1572458;74;1180;-72
2020/12/03 07:22:16;;;;;;;;;;;22.60;38.40;;;;;;1568441;74;1394;-70
2020/12/03 07:24:23;;;;;;;;;;;22.60;38.30;;;;;;1571204;74;1044;-69
2020/12/03 07:26:26;;;;;;;;;;;22.60;38.20;;;;;;1571180;74;742;-68
2020/12/03 07:28:32;;;;;;;;;;;22.60;38.10;;;;;;1549077;74;1293;-69
2020/12/03 07:30:52;;;;;;;;;;;22.60;38.10;;;;;;1566711;74;1566;-68
2020/12/03 07:32:58;;;;;;;;;;;22.70;38.10;;;;;;1572891;75;792;-70
2020/12/03 07:35:02;;;;;;;;;;;22.60;37.90;;;;;;1571109;74;1938;-71
2020/12/03 07:37:05;;;;;;;;;;;22.60;37.90;;;;;;1572504;74;975;-70
2020/12/03 07:39:17;;;;;;;;;;;22.60;37.80;;;;;;1572198;74;1999;-66
2020/12/03 07:41:19;;;;;;;;;;;22.60;37.80;;;;;;1572601;74;773;-69
2020/12/03 07:43:23;;;;;;;;;;;22.60;37.80;;;;;;1572680;74;703;-68
2020/12/03 07:45:27;;;;;;;;;;;22.70;37.80;;;;;;1572778;74;719;-69
2020/12/03 07:47:33;;;;;;;;;;;22.70;37.80;;;;;;1568487;74;1100;-68
2020/12/03 07:49:42;;;;;;;;;;;22.50;37.60;;;;;;1560011;74;1190;-69
2020/12/03 07:51:46;;;;;;;;;;;22.70;37.60;;;;;;1569311;74;704;-69
2020/12/03 07:53:49;;;;;;;;;;;22.60;37.50;;;;;;1525697;74;1937;-68
2020/12/03 07:55:51;;;;;;;;;;;22.60;37.40;;;;;;1567714;74;1600;-68
2020/12/03 07:57:54;;;;;;;;;;;22.70;37.50;;;;;;1567931;74;699;-69
2020/12/03 07:59:55;;;;;;;;;;;22.60;37.30;;;;;;1572637;74;1096;-68
2020/12/03 08:01:58;;;;;;;;;;;22.70;37.40;;;;;;1571199;74;1088;-69
2020/12/03 08:04:10;;;;;;;;;;;22.60;37.30;;;;;;1570894;74;799;-68
2020/12/03 08:06:13;;;;;;;;;;;22.60;37.30;;;;;;1562676;74;723;-70
2020/12/03 08:08:26;;;;;;;;;;;22.60;37.20;;;;;;1569249;74;739;-70
2020/12/03 08:10:35;;;;;;;;;;;22.60;37.20;;;;;;1563523;74;685;-70
2020/12/03 08:12:37;;;;;;;;;;;22.60;37.10;;;;;;1571397;74;1793;-70
2020/12/03 08:14:45;;;;;;;;;;;22.60;37.10;;;;;;1536083;76;1937;-70
2020/12/03 08:16:47;;;;;;;;;;;22.70;37.10;;;;;;1571828;74;779;-71
2020/12/03 08:19:03;;;;;;;;;;;22.60;37.00;;;;;;1572128;74;1165;-69
2020/12/03 08:21:05;;;;;;;;;;;22.60;37.00;;;;;;1568561;74;693;-69
2020/12/03 08:23:07;;;;;;;;;;;22.50;36.80;;;;;;1572636;74;786;-69
2020/12/03 08:25:11;;;;;;;;;;;22.60;36.60;;;;;;1569457;74;733;-78
2020/12/03 08:27:17;;;;;;;;;;;22.50;36.50;;;;;;1567780;74;743;-77
2020/12/03 08:29:21;;;;;;;;;;;22.50;33.90;;;;;;1572628;74;1149;-78
2020/12/03 08:31:22;;;;;;;;;;;22.40;32.40;;;;;;1569905;74;1170;-76
2020/12/03 08:33:29;;;;;;;;;;;22.40;31.30;;;;;;1571287;74;1954;-76
2020/12/03 08:35:31;;;;;;;;;;;22.30;30.30;;;;;;1572628;74;726;-76
2020/12/03 08:37:33;;;;;;;;;;;22.30;30.00;;;;;;1572716;74;711;-70
2020/12/03 08:39:36;;;;;;;;;;;22.30;29.50;;;;;;1572795;74;1124;-69
2020/12/03 08:41:38;;;;;;;;;;;22.30;31.60;;;;;;1566365;74;767;-68
2020/12/03 08:43:47;;;;;;;;;;;22.30;32.10;;;;;;1572144;74;776;-67
2020/12/03 08:45:50;;;;;;;;;;;22.30;32.50;;;;;;1571306;74;1127;-68
2020/12/03 08:47:52;;;;;;;;;;;22.30;32.60;;;;;;1572035;74;1915;-70
2020/12/03 08:49:54;;;;;;;;;;;22.20;32.50;;;;;;1570628;74;1521;-70
2020/12/03 08:51:59;;;;;;;;;;;22.30;32.50;;;;;;1571221;74;734;-70
2020/12/03 08:53:59;;;;;;;;;;;22.20;32.50;;;;;;1571378;74;1922;-70
2020/12/03 08:56:19;;;;;;;;;;;22.30;32.60;;;;;;1572633;75;739;-69
2020/12/03 08:58:21;;;;;;;;;;;22.30;32.30;;;;;;1572573;74;766;-69
2020/12/03 09:00:23;;;;;;;;;;;22.30;32.50;;;;;;1572621;74;1172;-69
2020/12/03 09:02:24;;;;;;;;;;;22.20;32.30;;;;;;1570454;74;804;-69
2020/12/03 09:04:27;;;;;;;;;;;22.30;32.60;;;;;;1568190;75;764;-69
2020/12/03 09:06:33;;;;;;;;;;;22.30;32.40;;;;;;1572746;74;786;-69
2020/12/03 09:08:35;;;;;;;;;;;22.30;32.30;;;;;;1571983;74;1129;-70
2020/12/03 09:10:37;;;;;;;;;;;22.30;32.40;;;;;;1572427;74;758;-70
2020/12/03 09:12:39;;;;;;;;;;;22.30;32.30;;;;;;1571329;75;671;-70
2020/12/03 09:14:41;;;;;;;;;;;22.30;32.30;;;;;;1571822;74;1910;-71
2020/12/03 09:16:44;;;;;;;;;;;22.30;32.40;;;;;;1572716;74;754;-70
2020/12/03 09:18:45;;;;;;;;;;;22.30;32.60;;;;;;1572770;74;1098;-69
2020/12/03 09:20:47;;;;;;;;;;;22.30;32.60;;;;;;1556609;74;754;-69
2020/12/03 09:22:49;;;;;;;;;;;22.40;32.40;;;;;;1568500;74;723;-70
2020/12/03 09:24:51;;;;;;;;;;;22.40;32.60;;;;;;1572546;74;730;-70
2020/12/03 09:26:54;;;;;;;;;;;22.40;32.50;;;;;;1572556;75;832;-70
2020/12/03 09:28:57;;;;;;;;;;;22.40;32.40;;;;;;1572579;75;1151;-70
2020/12/03 09:30:59;;;;;;;;;;;22.40;32.40;;;;;;1570757;74;699;-71
2020/12/03 09:33:01;;;;;;;;;;;22.40;32.30;;;;;;1572056;74;749;-70
2020/12/03 09:35:03;;;;;;;;;;;22.40;32.40;;;;;;1572556;74;1942;-72
2020/12/03 09:37:05;;;;;;;;;;;22.40;32.70;;;;;;1568622;75;702;-71
2020/12/03 09:39:07;;;;;;;;;;;22.40;32.50;;;;;;1572738;75;1093;-71
2020/12/03 09:41:09;;;;;;;;;;;22.40;32.50;;;;;;1570426;74;828;-72
2020/12/03 09:43:13;;;;;;;;;;;22.40;32.50;;;;;;1574236;74;789;-70
2020/12/03 09:45:16;;;;;;;;;;;22.50;32.60;;;;;;1572645;75;1582;-71
2020/12/03 09:47:19;;;;;;;;;;;22.50;32.50;;;;;;1572409;74;1073;-68
2020/12/03 09:49:21;;;;;;;;;;;22.40;32.40;;;;;;1571999;75;1161;-69
2020/12/03 09:51:24;;;;;;;;;;;22.50;32.50;;;;;;1572233;74;765;-70
2020/12/03 09:53:26;;;;;;;;;;;22.50;32.50;;;;;;1570134;74;787;-70
2020/12/03 09:55:28;;;;;;;;;;;22.50;32.60;;;;;;1567065;75;1954;-70
2020/12/03 09:57:29;;;;;;;;;;;22.50;32.60;;;;;;1569410;74;708;-70
2020/12/03 09:59:32;;;;;;;;;;;22.50;32.50;;;;;;1566497;74;1189;-71
2020/12/03 10:01:50;;;;;;;;;;;22.50;32.50;;;;;;1572444;75;727;-70
2020/12/03 10:04:12;;;;;;;;;;;22.60;32.60;;;;;;1571838;74;1096;-69
2020/12/03 10:06:19;;;;;;;;;;;22.50;32.50;;;;;;1569571;75;693;-69
2020/12/03 10:08:22;;;;;;;;;;;22.50;32.50;;;;;;1564453;74;790;-70
2020/12/03 10:10:31;;;;;;;;;;;22.50;32.60;;;;;;1566145;75;763;-70
2020/12/03 10:12:46;;;;;;;;;;;22.50;32.60;;;;;;1568100;74;655;-69
2020/12/03 10:14:56;;;;;;;;;;;22.50;32.60;;;;;;1568853;74;1942;-69
2020/12/03 10:17:02;;;;;;;;;;;22.50;32.50;;;;;;1569123;74;1729;-71
2020/12/03 10:19:05;;;;;;;;;;;22.50;32.50;;;;;;1570733;74;1173;-69
2020/12/03 10:21:07;;;;;;;;;;;22.50;32.50;;;;;;1570798;75;735;-69
2020/12/03 10:23:16;;;;;;;;;;;22.50;32.40;;;;;;1567230;74;829;-70
2020/12/03 10:25:18;;;;;;;;;;;22.50;32.50;;;;;;1571762;74;1081;-71
2020/12/03 10:27:21;;;;;;;;;;;22.50;32.50;;;;;;1570986;74;745;-70
2020/12/03 10:29:34;;;;;;;;;;;22.60;32.40;;;;;;1571567;74;1453;-72
2020/12/03 10:31:36;;;;;;;;;;;22.50;32.50;;;;;;1570257;74;722;-70
2020/12/03 10:33:38;;;;;;;;;;;22.60;32.40;;;;;;1563382;74;726;-70
2020/12/03 10:35:47;;;;;;;;;;;22.50;32.30;;;;;;1565910;74;1931;-71
2020/12/03 10:37:50;;;;;;;;;;;22.50;32.40;;;;;;1563251;74;836;-70
2020/12/03 10:39:53;;;;;;;;;;;22.60;32.40;;;;;;1566024;74;1138;-72
2020/12/03 10:41:55;;;;;;;;;;;22.60;32.40;;;;;;1569610;74;826;-72
2020/12/03 10:43:56;;;;;;;;;;;22.60;32.40;;;;;;1569969;74;714;-72
2020/12/03 10:46:01;;;;;;;;;;;22.70;32.50;;;;;;1567675;74;723;-72
2020/12/03 10:48:07;;;;;;;;;;;22.60;32.30;;;;;;1568835;74;1047;-71
2020/12/03 10:50:11;;;;;;;;;;;22.50;32.40;;;;;;1564683;74;1166;-72
2020/12/03 10:52:13;;;;;;;;;;;22.60;32.50;;;;;;1570638;74;690;-72
2020/12/03 10:54:19;;;;;;;;;;;22.70;32.50;;;;;;1566978;74;1906;-71
2020/12/03 10:56:27;;;;;;;;;;;22.60;32.40;;;;;;1567791;74;722;-71
2020/12/03 10:58:35;;;;;;;;;;;22.70;32.40;;;;;;1568860;74;1105;-72
2020/12/03 11:00:36;;;;;;;;;;;22.70;32.50;;;;;;1560320;74;996;-70
2020/12/03 11:02:42;;;;;;;;;;;22.60;32.30;;;;;;1569770;74;771;-70
2020/12/03 11:04:44;;;;;;;;;;;22.70;32.40;;;;;;1570933;74;1115;-71
2020/12/03 11:06:46;;;;;;;;;;;22.70;32.50;;;;;;1569998;74;736;-71
2020/12/03 11:08:48;;;;;;;;;;;22.70;32.50;;;;;;1571554;74;1132;-69
2020/12/03 11:10:57;;;;;;;;;;;22.70;32.40;;;;;;1558274;75;751;-69
2020/12/03 11:12:58;;;;;;;;;;;22.60;32.30;;;;;;1563313;74;993;-70
2020/12/03 11:15:02;;;;;;;;;;;22.60;32.30;;;;;;1568737;74;1917;-71
2020/12/03 11:17:20;;;;;;;;;;;22.60;32.30;;;;;;1567882;74;1019;-70
2020/12/03 11:19:23;;;;;;;;;;;22.60;32.30;;;;;;1567989;74;1242;-70
2020/12/03 11:21:25;;;;;;;;;;;22.60;32.40;;;;;;1564174;74;778;-71
2020/12/03 11:23:28;;;;;;;;;;;22.60;32.40;;;;;;1570936;74;766;-70
2020/12/03 11:25:30;;;;;;;;;;;22.60;32.40;;;;;;1569868;74;1469;-71
2020/12/03 11:27:32;;;;;;;;;;;22.60;32.50;;;;;;1568691;74;717;-70
2020/12/03 11:29:35;;;;;;;;;;;22.70;32.60;;;;;;1567977;74;1138;-70
2020/12/03 11:31:37;;;;;;;;;;;22.70;32.60;;;;;;1560421;74;769;-71
2020/12/03 11:33:41;;;;;;;;;;;22.70;32.60;;;;;;1561970;74;735;-71
2020/12/03 11:35:43;;;;;;;;;;;22.60;32.50;;;;;;1566224;74;1930;-71
2020/12/03 11:37:45;;;;;;;;;;;22.60;32.40;;;;;;1572107;74;596;-70
2020/12/03 11:39:48;;;;;;;;;;;22.60;32.40;;;;;;1569188;74;1136;-71
2020/12/03 11:42:09;;;;;;;;;;;22.60;32.40;;;;;;1569331;74;752;-70
2020/12/03 11:48:46;;;;;;;;;;;22.70;32.50;;;;;;1520159;77;1177;-70
2020/12/03 11:50:47;;;;;;;;;;;22.80;32.30;;;;;;1562532;74;1639;-71
2020/12/03 11:52:49;;;;;;;;;;;22.80;32.30;;;;;;1564986;74;724;-71
2020/12/03 11:54:51;;;;;;;;;;;22.80;32.40;;;;;;1572210;74;1940;-69
2020/12/03 11:56:54;;;;;;;;;;;22.70;32.30;;;;;;1569267;74;711;-71
2020/12/03 11:59:13;;;;;;;;;;;22.80;32.30;;;;;;1556632;74;1167;-71
2020/12/03 12:01:16;;;;;;;;;;;22.70;32.30;;;;;;1566041;74;750;-70
2020/12/03 12:03:18;;;;;;;;;;;22.80;32.30;;;;;;1566869;74;764;-71
2020/12/03 12:05:43;;;;;;;;;;;22.80;32.30;;;;;;1568145;74;738;-72
2020/12/03 12:07:35;;;;;;;;;;;22.80;32.30;;;;;;1562393;74;1354;-70
2020/12/03 12:09:46;;;;;;;;;;;22.80;32.30;;;;;;1563716;75;1149;-70
2020/12/03 12:11:42;;;;;;;;;;;22.70;32.30;;;;;;1566799;74;1601;-70
2020/12/03 12:13:41;;;;;;;;;;;22.70;32.30;;;;;;1569568;74;1531;-71
2020/12/03 12:15:43;;;;;;;;;;;22.70;32.30;;;;;;1566912;74;1928;-67
2020/12/03 12:17:45;;;;;;;;;;;22.80;32.20;;;;;;1566007;74;674;-70
2020/12/03 12:19:50;;;;;;;;;;;22.80;32.30;;;;;;1563748;74;1150;-71
2020/12/03 12:21:51;;;;;;;;;;;22.80;32.30;;;;;;1571954;74;1098;-68
2020/12/03 12:23:53;;;;;;;;;;;22.80;32.30;;;;;;1568130;74;1109;-72
2020/12/03 12:25:55;;;;;;;;;;;22.80;32.30;;;;;;1562331;74;712;-72